sensor_id;sensor_type;location;lat;lon;timestamp;pressure;altitude;pressure_sealevel;temperature;humidity
78841;BME280;68379;47.190;27.558;2024-03-23T00:54:37;99813.31;;;5.44;72.99
78841;BME280;68379;47.190;27.558;2024-03-23T00:57:08;99812.66;;;5.42;73.25
78841;BME280;68379;47.190;27.558;2024-03-23T00:59:39;99805.52;;;5.40;73.00
78841;BME280;68379;47.190;27.558;2024-03-23T01:02:12;99806.59;;;5.38;73.14
78841;BME280;68379;47.190;27.558;2024-03-23T01:04:45;99804.54;;;5.35;73.33
78841;BME280;68379;47.190;27.558;2024-03-23T01:07:17;99801.63;;;5.32;73.52
78841;BME280;68379;47.190;27.558;2024-03-23T01:09:48;99799.07;;;5.28;73.64
78841;BME280;68379;47.190;27.558;2024-03-23T01:12:25;99796.35;;;5.24;73.59
78841;BME280;68379;47.190;27.558;2024-03-23T01:14:56;99794.64;;;5.21;73.37
78841;BME280;68379;47.190;27.558;2024-03-23T01:17:28;99795.25;;;5.17;73.81
78841;BME280;68379;47.190;27.558;2024-03-23T01:19:59;99795.65;;;5.14;73.61
78841;BME280;68379;47.190;27.558;2024-03-23T01:22:31;99792.55;;;5.12;73.60
78841;BME280;68379;47.190;27.558;2024-03-23T01:25:03;99793.83;;;5.08;73.88
78841;BME280;68379;47.190;27.558;2024-03-23T01:27:35;99789.86;;;5.05;74.06
78841;BME280;68379;47.190;27.558;2024-03-23T01:30:08;99791.50;;;5.01;74.12
78841;BME280;68379;47.190;27.558;2024-03-23T01:32:40;99789.30;;;4.97;74.17
78841;BME280;68379;47.190;27.558;2024-03-23T01:35:12;99788.81;;;4.95;74.34
78841;BME280;68379;47.190;27.558;2024-03-23T01:37:43;99786.77;;;4.92;74.22
78841;BME280;68379;47.190;27.558;2024-03-23T01:40:15;99786.80;;;4.90;74.30
78841;BME280;68379;47.190;27.558;2024-03-23T01:42:58;99784.77;;;4.86;74.74
78841;BME280;68379;47.190;27.558;2024-03-23T01:45:30;99778.54;;;4.81;74.86
78841;BME280;68379;47.190;27.558;2024-03-23T01:48:02;99778.26;;;4.78;74.93
78841;BME280;68379;47.190;27.558;2024-03-23T01:50:34;99776.73;;;4.75;75.15
78841;BME280;68379;47.190;27.558;2024-03-23T01:53:06;99780.96;;;4.72;75.20
78841;BME280;68379;47.190;27.558;2024-03-23T01:55:38;99778.57;;;4.69;75.31
78841;BME280;68379;47.190;27.558;2024-03-23T01:58:11;99783.67;;;4.67;75.18
78841;BME280;68379;47.190;27.558;2024-03-23T02:00:43;99778.12;;;4.64;75.37
78841;BME280;68379;47.190;27.558;2024-03-23T02:03:25;99776.75;;;4.62;75.49
78841;BME280;68379;47.190;27.558;2024-03-23T02:05:58;99771.03;;;4.59;75.71
78841;BME280;68379;47.190;27.558;2024-03-23T02:08:32;99770.89;;;4.57;75.75
78841;BME280;68379;47.190;27.558;2024-03-23T02:11:03;99766.56;;;4.54;75.85
78841;BME280;68379;47.190;27.558;2024-03-23T02:13:36;99766.06;;;4.52;75.84
78841;BME280;68379;47.190;27.558;2024-03-23T02:16:08;99764.36;;;4.50;75.89
78841;BME280;68379;47.190;27.558;2024-03-23T02:18:40;99761.07;;;4.48;75.91
78841;BME280;68379;47.190;27.558;2024-03-23T02:21:11;99757.41;;;4.47;75.85
78841;BME280;68379;47.190;27.558;2024-03-23T02:23:44;99759.88;;;4.46;75.84
78841;BME280;68379;47.190;27.558;2024-03-23T02:26:16;99752.55;;;4.45;75.87
78841;BME280;68379;47.190;27.558;2024-03-23T02:28:47;99750.12;;;4.44;76.00
78841;BME280;68379;47.190;27.558;2024-03-23T02:31:19;99753.10;;;4.42;75.84
78841;BME280;68379;47.190;27.558;2024-03-23T02:33:50;99750.51;;;4.40;75.95
78841;BME280;68379;47.190;27.558;2024-03-23T02:36:22;99753.84;;;4.40;75.94
78841;BME280;68379;47.190;27.558;2024-03-23T02:38:56;99752.98;;;4.39;75.89
78841;BME280;68379;47.190;27.558;2024-03-23T02:41:28;99754.77;;;4.36;76.16
78841;BME280;68379;47.190;27.558;2024-03-23T02:43:59;99751.48;;;4.34;76.08
78841;BME280;68379;47.190;27.558;2024-03-23T02:46:31;99751.87;;;4.32;76.35
78841;BME280;68379;47.190;27.558;2024-03-23T02:49:03;99753.13;;;4.29;76.30
78841;BME280;68379;47.190;27.558;2024-03-23T02:51:34;99752.62;;;4.27;76.44
78841;BME280;68379;47.190;27.558;2024-03-23T02:54:06;99748.98;;;4.25;76.47
78841;BME280;68379;47.190;27.558;2024-03-23T02:56:38;99749.03;;;4.23;76.49
78841;BME280;68379;47.190;27.558;2024-03-23T02:59:10;99747.84;;;4.21;76.50
78841;BME280;68379;47.190;27.558;2024-03-23T03:01:42;99743.85;;;4.19;76.72
78841;BME280;68379;47.190;27.558;2024-03-23T03:04:14;99744.23;;;4.16;76.87
78841;BME280;68379;47.190;27.558;2024-03-23T03:06:46;99739.02;;;4.14;76.85
78841;BME280;68379;47.190;27.558;2024-03-23T03:09:18;99731.21;;;4.11;76.79
78841;BME280;68379;47.190;27.558;2024-03-23T03:11:51;99727.73;;;4.09;76.95
78841;BME280;68379;47.190;27.558;2024-03-23T03:14:23;99725.88;;;4.06;77.03
78841;BME280;68379;47.190;27.558;2024-03-23T03:16:56;99722.58;;;4.04;77.03
78841;BME280;68379;47.190;27.558;2024-03-23T03:19:28;99718.59;;;4.01;77.12
78841;BME280;68379;47.190;27.558;2024-03-23T03:21:59;99717.05;;;3.98;77.20
78841;BME280;68379;47.190;27.558;2024-03-23T03:27:32;99710.06;;;3.98;77.10
78841;BME280;68379;47.190;27.558;2024-03-23T03:30:05;99705.94;;;3.94;77.36
78841;BME280;68379;47.190;27.558;2024-03-23T03:32:40;99701.23;;;3.92;77.35
78841;BME280;68379;47.190;27.558;2024-03-23T03:35:12;99700.91;;;3.91;77.37
78841;BME280;68379;47.190;27.558;2024-03-23T03:37:44;99704.77;;;3.89;77.63
78841;BME280;68379;47.190;27.558;2024-03-23T03:40:16;99700.09;;;3.87;77.62
78841;BME280;68379;47.190;27.558;2024-03-23T03:42:48;99699.59;;;3.84;77.67
78841;BME280;68379;47.190;27.558;2024-03-23T03:45:19;99695.61;;;3.83;77.60
78841;BME280;68379;47.190;27.558;2024-03-23T03:47:53;99689.38;;;3.79;77.70
78841;BME280;68379;47.190;27.558;2024-03-23T03:50:25;99689.58;;;3.76;77.77
78841;BME280;68379;47.190;27.558;2024-03-23T03:52:56;99683.68;;;3.73;77.76
78841;BME280;68379;47.190;27.558;2024-03-23T03:55:28;99682.67;;;3.71;77.89
78841;BME280;68379;47.190;27.558;2024-03-23T03:57:59;99686.02;;;3.69;77.78
78841;BME280;68379;47.190;27.558;2024-03-23T04:00:31;99682.70;;;3.69;77.84
78841;BME280;68379;47.190;27.558;2024-03-23T04:03:02;99683.95;;;3.67;77.84
78841;BME280;68379;47.190;27.558;2024-03-23T04:05:34;99679.91;;;3.68;78.03
78841;BME280;68379;47.190;27.558;2024-03-23T04:08:06;99675.55;;;3.68;78.08
78841;BME280;68379;47.190;27.558;2024-03-23T04:10:40;99675.73;;;3.67;77.87
78841;BME280;68379;47.190;27.558;2024-03-23T04:13:11;99671.73;;;3.67;77.97
78841;BME280;68379;47.190;27.558;2024-03-23T04:15:43;99672.40;;;3.69;77.77
78841;BME280;68379;47.190;27.558;2024-03-23T04:18:15;99669.93;;;3.70;77.88
78841;BME280;68379;47.190;27.558;2024-03-23T04:20:46;99669.89;;;3.73;77.95
78841;BME280;68379;47.190;27.558;2024-03-23T04:23:19;99662.01;;;3.74;78.03
78841;BME280;68379;47.190;27.558;2024-03-23T04:25:52;99662.14;;;3.76;78.14
78841;BME280;68379;47.190;27.558;2024-03-23T04:28:23;99663.50;;;3.79;78.17
78841;BME280;68379;47.190;27.558;2024-03-23T04:30:56;99665.56;;;3.81;78.19
78841;BME280;68379;47.190;27.558;2024-03-23T04:33:32;99667.14;;;3.82;78.20
78841;BME280;68379;47.190;27.558;2024-03-23T04:36:06;99670.95;;;3.84;77.80
78841;BME280;68379;47.190;27.558;2024-03-23T04:38:38;99671.27;;;3.85;78.31
78841;BME280;68379;47.190;27.558;2024-03-23T04:41:09;99668.67;;;3.85;78.27
78841;BME280;68379;47.190;27.558;2024-03-23T04:43:41;99667.26;;;3.85;78.30
78841;BME280;68379;47.190;27.558;2024-03-23T04:46:12;99667.27;;;3.85;78.34
78841;BME280;68379;47.190;27.558;2024-03-23T04:48:45;99666.22;;;3.85;78.46
78841;BME280;68379;47.190;27.558;2024-03-23T04:51:26;99669.33;;;3.88;78.39
78841;BME280;68379;47.190;27.558;2024-03-23T04:53:59;99669.44;;;3.91;78.54
78841;BME280;68379;47.190;27.558;2024-03-23T04:56:30;99666.23;;;3.95;78.50
78841;BME280;68379;47.190;27.558;2024-03-23T04:59:03;99661.77;;;4.01;78.45
78841;BME280;68379;47.190;27.558;2024-03-23T05:01:36;99665.19;;;4.07;78.42
78841;BME280;68379;47.190;27.558;2024-03-23T05:04:09;99661.25;;;4.12;78.49
78841;BME280;68379;47.190;27.558;2024-03-23T05:06:40;99659.56;;;4.18;78.52
78841;BME280;68379;47.190;27.558;2024-03-23T05:09:14;99659.80;;;4.26;78.48
78841;BME280;68379;47.190;27.558;2024-03-23T05:11:45;99661.20;;;4.35;78.37
78841;BME280;68379;47.190;27.558;2024-03-23T05:14:19;99658.42;;;4.45;78.49
78841;BME280;68379;47.190;27.558;2024-03-23T05:16:50;99657.40;;;4.54;78.67
78841;BME280;68379;47.190;27.558;2024-03-23T05:19:22;99656.22;;;4.61;78.38
78841;BME280;68379;47.190;27.558;2024-03-23T05:21:54;99649.09;;;4.68;78.20
78841;BME280;68379;47.190;27.558;2024-03-23T05:24:25;99650.88;;;4.76;77.96
78841;BME280;68379;47.190;27.558;2024-03-23T05:26:57;99656.35;;;4.82;78.00
78841;BME280;68379;47.190;27.558;2024-03-23T05:29:29;99651.84;;;4.90;77.82
78841;BME280;68379;47.190;27.558;2024-03-23T05:32:01;99654.30;;;4.98;77.57
78841;BME280;68379;47.190;27.558;2024-03-23T05:34:32;99652.38;;;5.07;77.66
78841;BME280;68379;47.190;27.558;2024-03-23T05:37:04;99649.05;;;5.15;77.30
78841;BME280;68379;47.190;27.558;2024-03-23T05:39:38;99652.20;;;5.23;77.33
78841;BME280;68379;47.190;27.558;2024-03-23T05:42:08;99648.22;;;5.31;77.13
78841;BME280;68379;47.190;27.558;2024-03-23T05:44:39;99648.79;;;5.36;77.07
78841;BME280;68379;47.190;27.558;2024-03-23T05:47:11;99650.42;;;5.42;76.91
78841;BME280;68379;47.190;27.558;2024-03-23T05:49:43;99651.65;;;5.50;76.84
78841;BME280;68379;47.190;27.558;2024-03-23T05:52:15;99647.80;;;5.58;76.62
78841;BME280;68379;47.190;27.558;2024-03-23T05:54:46;99649.52;;;5.67;76.72
78841;BME280;68379;47.190;27.558;2024-03-23T05:57:19;99653.68;;;5.77;76.55
78841;BME280;68379;47.190;27.558;2024-03-23T05:59:52;99656.63;;;5.86;76.57
78841;BME280;68379;47.190;27.558;2024-03-23T06:02:23;99657.81;;;5.96;76.33
78841;BME280;68379;47.190;27.558;2024-03-23T06:04:55;99657.96;;;6.05;76.14
78841;BME280;68379;47.190;27.558;2024-03-23T06:07:28;99654.57;;;6.15;76.02
78841;BME280;68379;47.190;27.558;2024-03-23T06:10:01;99651.88;;;6.24;75.90
78841;BME280;68379;47.190;27.558;2024-03-23T06:12:33;99651.80;;;6.35;76.02
78841;BME280;68379;47.190;27.558;2024-03-23T06:15:06;99651.24;;;6.43;75.64
78841;BME280;68379;47.190;27.558;2024-03-23T06:17:43;99650.14;;;6.51;75.63
78841;BME280;68379;47.190;27.558;2024-03-23T06:20:14;99649.61;;;6.65;75.76
78841;BME280;68379;47.190;27.558;2024-03-23T06:22:45;99646.30;;;6.78;74.91
78841;BME280;68379;47.190;27.558;2024-03-23T06:25:17;99642.77;;;6.85;74.99
78841;BME280;68379;47.190;27.558;2024-03-23T06:27:49;99643.48;;;6.97;74.88
78841;BME280;68379;47.190;27.558;2024-03-23T06:30:21;99642.61;;;7.09;74.75
78841;BME280;68379;47.190;27.558;2024-03-23T06:32:53;99638.70;;;7.23;74.78
78841;BME280;68379;47.190;27.558;2024-03-23T06:35:25;99635.66;;;7.37;74.66
78841;BME280;68379;47.190;27.558;2024-03-23T06:37:57;99634.71;;;7.51;74.61
78841;BME280;68379;47.190;27.558;2024-03-23T06:40:29;99640.39;;;7.67;74.21
78841;BME280;68379;47.190;27.558;2024-03-23T06:43:00;99644.09;;;7.78;73.55
78841;BME280;68379;47.190;27.558;2024-03-23T06:45:32;99635.12;;;7.89;73.83
78841;BME280;68379;47.190;27.558;2024-03-23T06:48:04;99636.27;;;8.03;73.64
78841;BME280;68379;47.190;27.558;2024-03-23T06:50:38;99633.55;;;8.15;73.24
78841;BME280;68379;47.190;27.558;2024-03-23T06:53:12;99637.63;;;8.31;73.54
78841;BME280;68379;47.190;27.558;2024-03-23T06:55:43;99637.46;;;8.47;72.99
78841;BME280;68379;47.190;27.558;2024-03-23T06:58:23;99634.27;;;8.64;73.36
78841;BME280;68379;47.190;27.558;2024-03-23T07:00:55;99633.33;;;8.76;73.27
78841;BME280;68379;47.190;27.558;2024-03-23T07:03:28;99629.07;;;8.86;73.30
78841;BME280;68379;47.190;27.558;2024-03-23T07:06:04;99623.09;;;8.95;72.50
78841;BME280;68379;47.190;27.558;2024-03-23T07:08:37;99617.98;;;9.10;72.65
78841;BME280;68379;47.190;27.558;2024-03-23T07:11:08;99618.63;;;9.21;71.65
78841;BME280;68379;47.190;27.558;2024-03-23T07:13:40;99608.35;;;9.32;72.17
78841;BME280;68379;47.190;27.558;2024-03-23T07:16:12;99602.94;;;9.40;71.68
78841;BME280;68379;47.190;27.558;2024-03-23T07:18:44;99604.80;;;9.46;71.94
78841;BME280;68379;47.190;27.558;2024-03-23T07:21:16;99604.86;;;9.49;71.16
78841;BME280;68379;47.190;27.558;2024-03-23T07:23:48;99603.01;;;9.56;70.74
78841;BME280;68379;47.190;27.558;2024-03-23T07:26:19;99604.54;;;9.67;70.75
78841;BME280;68379;47.190;27.558;2024-03-23T07:28:51;99608.05;;;9.76;70.76
78841;BME280;68379;47.190;27.558;2024-03-23T07:31:23;99609.21;;;9.86;70.19
78841;BME280;68379;47.190;27.558;2024-03-23T07:33:55;99611.29;;;9.97;70.43
78841;BME280;68379;47.190;27.558;2024-03-23T07:36:26;99609.64;;;10.11;70.38
78841;BME280;68379;47.190;27.558;2024-03-23T07:38:58;99601.96;;;10.26;69.54
78841;BME280;68379;47.190;27.558;2024-03-23T07:41:29;99602.80;;;10.40;69.51
78841;BME280;68379;47.190;27.558;2024-03-23T07:44:00;99598.61;;;10.60;69.69
78841;BME280;68379;47.190;27.558;2024-03-23T07:46:32;99588.60;;;10.75;69.27
78841;BME280;68379;47.190;27.558;2024-03-23T07:49:05;99589.94;;;10.84;69.30
78841;BME280;68379;47.190;27.558;2024-03-23T07:51:38;99587.31;;;10.91;68.57
78841;BME280;68379;47.190;27.558;2024-03-23T07:54:14;99590.23;;;11.01;69.15
78841;BME280;68379;47.190;27.558;2024-03-23T07:56:47;99592.14;;;11.10;68.92
78841;BME280;68379;47.190;27.558;2024-03-23T07:59:19;99593.74;;;11.18;67.51
78841;BME280;68379;47.190;27.558;2024-03-23T08:01:50;99589.77;;;11.27;67.86
78841;BME280;68379;47.190;27.558;2024-03-23T08:04:22;99590.14;;;11.38;67.73
78841;BME280;68379;47.190;27.558;2024-03-23T08:06:54;99594.27;;;11.56;67.18
78841;BME280;68379;47.190;27.558;2024-03-23T08:09:27;99590.19;;;11.63;64.93
78841;BME280;68379;47.190;27.558;2024-03-23T08:12:00;99587.40;;;11.74;66.33
78841;BME280;68379;47.190;27.558;2024-03-23T08:14:32;99585.45;;;11.89;66.54
78841;BME280;68379;47.190;27.558;2024-03-23T08:17:03;99575.88;;;12.04;67.27
78841;BME280;68379;47.190;27.558;2024-03-23T08:19:35;99578.87;;;12.15;65.96
78841;BME280;68379;47.190;27.558;2024-03-23T08:22:06;99574.15;;;12.24;64.89
78841;BME280;68379;47.190;27.558;2024-03-23T08:24:39;99574.39;;;12.30;65.51
78841;BME280;68379;47.190;27.558;2024-03-23T08:27:10;99573.13;;;12.34;64.71
78841;BME280;68379;47.190;27.558;2024-03-23T08:29:42;99574.30;;;12.38;63.81
78841;BME280;68379;47.190;27.558;2024-03-23T08:32:13;99572.39;;;12.48;64.53
78841;BME280;68379;47.190;27.558;2024-03-23T08:34:44;99570.75;;;12.56;62.66
78841;BME280;68379;47.190;27.558;2024-03-23T08:37:19;99566.33;;;12.62;62.69
78841;BME280;68379;47.190;27.558;2024-03-23T08:39:52;99560.51;;;12.69;63.82
78841;BME280;68379;47.190;27.558;2024-03-23T08:42:24;99558.29;;;12.77;62.16
78841;BME280;68379;47.190;27.558;2024-03-23T08:44:55;99557.20;;;12.84;62.33
78841;BME280;68379;47.190;27.558;2024-03-23T08:47:27;99554.48;;;12.92;62.17
78841;BME280;68379;47.190;27.558;2024-03-23T08:50:01;99548.35;;;13.00;62.88
78841;BME280;68379;47.190;27.558;2024-03-23T08:52:33;99545.92;;;13.06;61.44
78841;BME280;68379;47.190;27.558;2024-03-23T08:55:05;99541.73;;;13.11;60.94
78841;BME280;68379;47.190;27.558;2024-03-23T08:57:36;99540.89;;;13.20;60.66
78841;BME280;68379;47.190;27.558;2024-03-23T09:00:10;99538.81;;;13.29;60.67
78841;BME280;68379;47.190;27.558;2024-03-23T09:02:43;99531.05;;;13.38;59.25
78841;BME280;68379;47.190;27.558;2024-03-23T09:05:18;99524.95;;;13.49;59.95
78841;BME280;68379;47.190;27.558;2024-03-23T09:07:49;99525.09;;;13.62;60.55
78841;BME280;68379;47.190;27.558;2024-03-23T09:10:20;99523.45;;;13.72;60.68
78841;BME280;68379;47.190;27.558;2024-03-23T09:12:52;99520.10;;;13.81;58.55
78841;BME280;68379;47.190;27.558;2024-03-23T09:15:24;99512.94;;;13.88;59.20
78841;BME280;68379;47.190;27.558;2024-03-23T09:17:56;99511.91;;;13.94;58.74
78841;BME280;68379;47.190;27.558;2024-03-23T09:20:27;99511.27;;;14.01;58.56
78841;BME280;68379;47.190;27.558;2024-03-23T09:23:00;99505.31;;;14.06;57.12
78841;BME280;68379;47.190;27.558;2024-03-23T09:25:33;99500.88;;;14.10;58.50
78841;BME280;68379;47.190;27.558;2024-03-23T09:28:08;99499.58;;;14.13;58.39
78841;BME280;68379;47.190;27.558;2024-03-23T09:30:39;99493.45;;;14.15;56.89
78841;BME280;68379;47.190;27.558;2024-03-23T09:33:12;99488.23;;;14.16;57.61
78841;BME280;68379;47.190;27.558;2024-03-23T09:35:45;99487.75;;;14.27;57.56
78841;BME280;68379;47.190;27.558;2024-03-23T09:38:17;99486.35;;;14.35;57.38
78841;BME280;68379;47.190;27.558;2024-03-23T09:40:50;99485.99;;;14.47;57.52
78841;BME280;68379;47.190;27.558;2024-03-23T09:43:26;99477.27;;;14.59;57.01
78841;BME280;68379;47.190;27.558;2024-03-23T09:45:59;99473.65;;;14.66;54.63
78841;BME280;68379;47.190;27.558;2024-03-23T09:48:32;99475.95;;;14.75;56.57
78841;BME280;68379;47.190;27.558;2024-03-23T09:51:04;99470.38;;;14.84;56.67
78841;BME280;68379;47.190;27.558;2024-03-23T09:53:53;99470.83;;;14.94;56.58
78841;BME280;68379;47.190;27.558;2024-03-23T09:56:24;99466.72;;;15.06;56.74
78841;BME280;68379;47.190;27.558;2024-03-23T09:59:03;99465.42;;;15.15;55.60
78841;BME280;68379;47.190;27.558;2024-03-23T10:01:39;99462.77;;;15.17;55.99
78841;BME280;68379;47.190;27.558;2024-03-23T10:04:37;99462.61;;;15.28;55.27
78841;BME280;68379;47.190;27.558;2024-03-23T10:07:13;99454.88;;;15.40;55.17
78841;BME280;68379;47.190;27.558;2024-03-23T10:09:45;99452.67;;;15.52;55.57
78841;BME280;68379;47.190;27.558;2024-03-23T10:12:19;99445.95;;;15.51;52.45
78841;BME280;68379;47.190;27.558;2024-03-23T10:14:52;99443.03;;;15.47;52.34
78841;BME280;68379;47.190;27.558;2024-03-23T10:17:23;99435.08;;;15.54;54.09
78841;BME280;68379;47.190;27.558;2024-03-23T10:19:57;99429.83;;;15.63;53.30
78841;BME280;68379;47.190;27.558;2024-03-23T10:22:30;99427.82;;;15.78;53.76
78841;BME280;68379;47.190;27.558;2024-03-23T10:25:13;99420.67;;;15.89;53.22
78841;BME280;68379;47.190;27.558;2024-03-23T10:27:45;99415.73;;;15.96;53.32
78841;BME280;68379;47.190;27.558;2024-03-23T10:30:29;99412.75;;;16.11;52.93
78841;BME280;68379;47.190;27.558;2024-03-23T10:33:10;99408.23;;;16.20;51.57
78841;BME280;68379;47.190;27.558;2024-03-23T10:35:44;99402.36;;;16.22;52.78
78841;BME280;68379;47.190;27.558;2024-03-23T10:38:14;99397.14;;;16.26;50.32
78841;BME280;68379;47.190;27.558;2024-03-23T10:40:46;99391.36;;;16.19;47.85
78841;BME280;68379;47.190;27.558;2024-03-23T10:43:17;99392.41;;;16.32;50.57
78841;BME280;68379;47.190;27.558;2024-03-23T10:45:51;99392.55;;;16.47;50.90
78841;BME280;68379;47.190;27.558;2024-03-23T10:48:26;99392.81;;;16.54;50.99
78841;BME280;68379;47.190;27.558;2024-03-23T10:50:58;99387.46;;;16.61;49.88
78841;BME280;68379;47.190;27.558;2024-03-23T10:53:29;99378.64;;;16.70;49.37
78841;BME280;68379;47.190;27.558;2024-03-23T10:56:04;99371.18;;;16.80;50.10
78841;BME280;68379;47.190;27.558;2024-03-23T10:58:40;99364.07;;;16.89;49.57
78841;BME280;68379;47.190;27.558;2024-03-23T11:01:15;99361.58;;;16.96;49.64
78841;BME280;68379;47.190;27.558;2024-03-23T11:03:48;99354.84;;;17.03;49.51
78841;BME280;68379;47.190;27.558;2024-03-23T11:06:37;99352.55;;;17.15;49.63
78841;BME280;68379;47.190;27.558;2024-03-23T11:09:45;99354.91;;;17.26;49.13
78841;BME280;68379;47.190;27.558;2024-03-23T11:12:27;99342.23;;;17.38;48.49
78841;BME280;68379;47.190;27.558;2024-03-23T11:15:03;99338.77;;;17.48;47.60
78841;BME280;68379;47.190;27.558;2024-03-23T11:17:36;99335.28;;;17.61;47.33
78841;BME280;68379;47.190;27.558;2024-03-23T11:20:10;99329.01;;;17.78;47.52
78841;BME280;68379;47.190;27.558;2024-03-23T11:22:59;99327.11;;;17.89;48.10
78841;BME280;68379;47.190;27.558;2024-03-23T11:25:38;99324.48;;;17.93;47.88
78841;BME280;68379;47.190;27.558;2024-03-23T11:28:13;99320.79;;;17.97;47.61
78841;BME280;68379;47.190;27.558;2024-03-23T11:30:46;99317.17;;;17.97;47.19
78841;BME280;68379;47.190;27.558;2024-03-23T11:33:18;99318.20;;;17.98;46.60
78841;BME280;68379;47.190;27.558;2024-03-23T11:35:50;99310.20;;;17.95;45.84
78841;BME280;68379;47.190;27.558;2024-03-23T11:38:24;99305.23;;;18.01;46.85
78841;BME280;68379;47.190;27.558;2024-03-23T11:40:57;99301.24;;;18.15;45.78
78841;BME280;68379;47.190;27.558;2024-03-23T11:43:36;99295.55;;;18.31;46.12
78841;BME280;68379;47.190;27.558;2024-03-23T11:46:07;99290.77;;;18.39;45.26
78841;BME280;68379;47.190;27.558;2024-03-23T11:48:39;99292.12;;;18.29;41.82
78841;BME280;68379;47.190;27.558;2024-03-23T11:51:11;99289.47;;;18.24;44.09
78841;BME280;68379;47.190;27.558;2024-03-23T11:53:42;99279.22;;;18.27;42.75
78841;BME280;68379;47.190;27.558;2024-03-23T11:56:19;99273.52;;;18.27;44.12
78841;BME280;68379;47.190;27.558;2024-03-23T11:58:51;99268.60;;;18.37;44.98
78841;BME280;68379;47.190;27.558;2024-03-23T12:01:23;99267.64;;;18.47;44.95
78841;BME280;68379;47.190;27.558;2024-03-23T12:03:57;99258.70;;;18.42;43.30
78841;BME280;68379;47.190;27.558;2024-03-23T12:06:29;99247.04;;;18.40;44.35
78841;BME280;68379;47.190;27.558;2024-03-23T12:09:08;99245.34;;;18.53;44.17
78841;BME280;68379;47.190;27.558;2024-03-23T12:11:38;99238.04;;;18.70;44.11
78841;BME280;68379;47.190;27.558;2024-03-23T12:14:09;99231.30;;;18.78;43.24
78841;BME280;68379;47.190;27.558;2024-03-23T12:16:44;99230.02;;;18.80;42.82
78841;BME280;68379;47.190;27.558;2024-03-23T12:19:16;99227.48;;;18.72;41.49
78841;BME280;68379;47.190;27.558;2024-03-23T12:21:48;99222.93;;;18.75;41.93
78841;BME280;68379;47.190;27.558;2024-03-23T12:24:22;99215.66;;;18.85;41.97
78841;BME280;68379;47.190;27.558;2024-03-23T12:26:54;99214.23;;;18.94;41.29
78841;BME280;68379;47.190;27.558;2024-03-23T12:29:28;99212.37;;;19.01;42.10
78841;BME280;68379;47.190;27.558;2024-03-23T12:32:01;99205.28;;;19.19;42.72
78841;BME280;68379;47.190;27.558;2024-03-23T12:34:32;99202.53;;;19.30;42.09
78841;BME280;68379;47.190;27.558;2024-03-23T12:37:04;99197.58;;;19.36;40.74
78841;BME280;68379;47.190;27.558;2024-03-23T12:39:37;99196.26;;;19.45;41.97
78841;BME280;68379;47.190;27.558;2024-03-23T12:42:08;99187.61;;;19.51;41.47
78841;BME280;68379;47.190;27.558;2024-03-23T12:44:40;99187.41;;;19.56;41.27
78841;BME280;68379;47.190;27.558;2024-03-23T12:47:12;99183.01;;;19.70;41.99
78841;BME280;68379;47.190;27.558;2024-03-23T12:49:43;99180.33;;;19.78;41.84
78841;BME280;68379;47.190;27.558;2024-03-23T12:52:16;99175.56;;;19.75;41.62
78841;BME280;68379;47.190;27.558;2024-03-23T12:54:48;99171.90;;;19.80;41.95
78841;BME280;68379;47.190;27.558;2024-03-23T12:57:20;99171.74;;;19.84;41.95
78841;BME280;68379;47.190;27.558;2024-03-23T12:59:54;99170.70;;;19.85;41.54
78841;BME280;68379;47.190;27.558;2024-03-23T13:02:26;99166.64;;;19.85;40.85
78841;BME280;68379;47.190;27.558;2024-03-23T13:04:57;99162.23;;;19.88;41.40
78841;BME280;68379;47.190;27.558;2024-03-23T13:07:30;99160.48;;;19.89;40.92
78841;BME280;68379;47.190;27.558;2024-03-23T13:10:01;99157.23;;;19.98;41.27
78841;BME280;68379;47.190;27.558;2024-03-23T13:12:34;99150.20;;;20.02;40.46
78841;BME280;68379;47.190;27.558;2024-03-23T13:15:07;99146.35;;;19.99;40.17
78841;BME280;68379;47.190;27.558;2024-03-23T13:17:39;99144.17;;;20.02;39.28
78841;BME280;68379;47.190;27.558;2024-03-23T13:20:12;99136.77;;;20.08;39.73
78841;BME280;68379;47.190;27.558;2024-03-23T13:22:45;99133.59;;;20.04;39.04
78841;BME280;68379;47.190;27.558;2024-03-23T13:25:17;99124.05;;;20.06;39.40
78841;BME280;68379;47.190;27.558;2024-03-23T13:27:49;99125.27;;;20.06;39.17
78841;BME280;68379;47.190;27.558;2024-03-23T13:30:23;99120.92;;;20.17;39.09
78841;BME280;68379;47.190;27.558;2024-03-23T13:32:56;99121.39;;;20.74;38.14
78841;BME280;68379;47.190;27.558;2024-03-23T13:35:28;99119.32;;;21.38;38.09
78841;BME280;68379;47.190;27.558;2024-03-23T13:38:05;99117.75;;;21.88;37.87
78841;BME280;68379;47.190;27.558;2024-03-23T13:40:37;99112.48;;;22.22;36.31
78841;BME280;68379;47.190;27.558;2024-03-23T13:43:08;99109.88;;;22.48;37.56
78841;BME280;68379;47.190;27.558;2024-03-23T13:45:40;99106.20;;;22.59;37.38
78841;BME280;68379;47.190;27.558;2024-03-23T13:48:11;99103.55;;;22.61;37.07
78841;BME280;68379;47.190;27.558;2024-03-23T13:50:43;99099.08;;;22.66;36.26
78841;BME280;68379;47.190;27.558;2024-03-23T13:53:15;99092.38;;;22.77;35.39
78841;BME280;68379;47.190;27.558;2024-03-23T13:55:53;99091.70;;;22.98;35.61
78841;BME280;68379;47.190;27.558;2024-03-23T13:58:25;99087.77;;;23.22;36.46
78841;BME280;68379;47.190;27.558;2024-03-23T14:00:58;99087.10;;;23.26;35.21
78841;BME280;68379;47.190;27.558;2024-03-23T14:03:27;99086.85;;;23.23;35.99
78841;BME280;68379;47.190;27.558;2024-03-23T14:06:04;99077.11;;;23.03;34.61
78841;BME280;68379;47.190;27.558;2024-03-23T14:08:38;99080.76;;;22.90;35.12
78841;BME280;68379;47.190;27.558;2024-03-23T14:11:10;99074.02;;;22.87;35.19
78841;BME280;68379;47.190;27.558;2024-03-23T14:13:41;99070.58;;;22.66;34.83
78841;BME280;68379;47.190;27.558;2024-03-23T14:16:13;99068.38;;;22.72;34.89
78841;BME280;68379;47.190;27.558;2024-03-23T14:18:44;99066.23;;;22.80;34.29
78841;BME280;68379;47.190;27.558;2024-03-23T14:21:19;99070.67;;;22.79;34.30